sensor_id;sensor_type;location;lat;lon;timestamp;P1;durP1;ratioP1;P2;durP2;ratioP2
72337;SDS011;60294;64.134;-21.862;2022-08-01T00:01:55;1.60;;;0.60;;
72337;SDS011;60294;64.134;-21.862;2022-08-01T00:04:21;0.50;;;0.40;;
72337;SDS011;60294;64.134;-21.862;2022-08-01T00:06:47;4.10;;;0.70;;
72337;SDS011;60294;64.134;-21.862;2022-08-01T00:09:13;2.00;;;0.85;;
72337;SDS011;60294;64.134;-21.862;2022-08-01T00:11:38;4.05;;;0.90;;
72337;SDS011;60294;64.134;-21.862;2022-08-01T00:14:04;4.82;;;0.73;;
72337;SDS011;60294;64.134;-21.862;2022-08-01T00:16:30;0.55;;;0.50;;
72337;SDS011;60294;64.134;-21.862;2022-08-01T00:18:56;4.55;;;0.60;;
72337;SDS011;60294;64.134;-21.862;2022-08-01T00:21:22;2.88;;;0.43;;
72337;SDS011;60294;64.134;-21.862;2022-08-01T00:23:47;1.40;;;0.50;;
72337;SDS011;60294;64.134;-21.862;2022-08-01T00:26:13;0.88;;;0.68;;
72337;SDS011;60294;64.134;-21.862;2022-08-01T00:28:40;1.77;;;1.20;;
72337;SDS011;60294;64.134;-21.862;2022-08-01T00:31:06;3.58;;;0.65;;
72337;SDS011;60294;64.134;-21.862;2022-08-01T00:33:32;1.58;;;0.70;;
72337;SDS011;60294;64.134;-21.862;2022-08-01T00:35:58;1.30;;;0.60;;
72337;SDS011;60294;64.134;-21.862;2022-08-01T00:38:24;3.22;;;0.57;;
72337;SDS011;60294;64.134;-21.862;2022-08-01T00:40:50;3.90;;;0.60;;
72337;SDS011;60294;64.134;-21.862;2022-08-01T00:43:16;2.08;;;0.65;;
72337;SDS011;60294;64.134;-21.862;2022-08-01T00:45:42;4.68;;;0.80;;
72337;SDS011;60294;64.134;-21.862;2022-08-01T00:48:08;0.85;;;0.60;;
72337;SDS011;60294;64.134;-21.862;2022-08-01T00:50:34;2.50;;;0.77;;
72337;SDS011;60294;64.134;-21.862;2022-08-01T00:53:00;6.80;;;0.80;;
72337;SDS011;60294;64.134;-21.862;2022-08-01T00:55:27;4.47;;;1.15;;
72337;SDS011;60294;64.134;-21.862;2022-08-01T00:57:53;2.67;;;0.60;;
72337;SDS011;60294;64.134;-21.862;2022-08-01T01:00:20;5.03;;;0.98;;
72337;SDS011;60294;64.134;-21.862;2022-08-01T01:02:46;2.85;;;0.57;;
72337;SDS011;60294;64.134;-21.862;2022-08-01T01:05:12;6.50;;;1.02;;
72337;SDS011;60294;64.134;-21.862;2022-08-01T01:07:49;3.30;;;0.80;;
72337;SDS011;60294;64.134;-21.862;2022-08-01T01:15:46;1.88;;;0.63;;
72337;SDS011;60294;64.134;-21.862;2022-08-01T01:18:17;3.30;;;0.63;;
72337;SDS011;60294;64.134;-21.862;2022-08-01T01:20:52;8.52;;;1.00;;
72337;SDS011;60294;64.134;-21.862;2022-08-01T01:26:29;6.28;;;0.95;;
72337;SDS011;60294;64.134;-21.862;2022-08-01T01:32:07;2.47;;;0.70;;
72337;SDS011;60294;64.134;-21.862;2022-08-01T01:34:48;2.35;;;0.70;;
72337;SDS011;60294;64.134;-21.862;2022-08-01T01:37:16;3.42;;;0.80;;
72337;SDS011;60294;64.134;-21.862;2022-08-01T01:39:46;5.38;;;1.10;;
72337;SDS011;60294;64.134;-21.862;2022-08-01T01:42:15;2.38;;;0.90;;
72337;SDS011;60294;64.134;-21.862;2022-08-01T01:44:42;2.95;;;0.80;;
72337;SDS011;60294;64.134;-21.862;2022-08-01T01:47:11;9.23;;;1.63;;
72337;SDS011;60294;64.134;-21.862;2022-08-01T01:49:39;10.23;;;1.30;;
72337;SDS011;60294;64.134;-21.862;2022-08-01T01:52:06;3.28;;;1.67;;
72337;SDS011;60294;64.134;-21.862;2022-08-01T01:54:36;4.15;;;1.20;;
72337;SDS011;60294;64.134;-21.862;2022-08-01T01:57:06;4.63;;;1.05;;
72337;SDS011;60294;64.134;-21.862;2022-08-01T01:59:34;3.03;;;0.70;;
72337;SDS011;60294;64.134;-21.862;2022-08-01T02:02:02;2.38;;;0.70;;
72337;SDS011;60294;64.134;-21.862;2022-08-01T02:04:30;2.85;;;0.93;;
72337;SDS011;60294;64.134;-21.862;2022-08-01T02:06:58;3.78;;;0.73;;
72337;SDS011;60294;64.134;-21.862;2022-08-01T02:09:26;2.67;;;0.55;;
72337;SDS011;60294;64.134;-21.862;2022-08-01T02:11:53;0.47;;;0.40;;
72337;SDS011;60294;64.134;-21.862;2022-08-01T02:14:20;1.00;;;0.70;;
72337;SDS011;60294;64.134;-21.862;2022-08-01T02:16:48;3.53;;;0.80;;
72337;SDS011;60294;64.134;-21.862;2022-08-01T02:19:16;1.15;;;0.52;;
72337;SDS011;60294;64.134;-21.862;2022-08-01T02:21:49;2.85;;;0.85;;
72337;SDS011;60294;64.134;-21.862;2022-08-01T02:27:01;1.13;;;0.40;;
72337;SDS011;60294;64.134;-21.862;2022-08-01T02:29:33;0.60;;;0.32;;
72337;SDS011;60294;64.134;-21.862;2022-08-01T02:32:04;1.52;;;0.50;;
72337;SDS011;60294;64.134;-21.862;2022-08-01T02:34:32;0.50;;;0.50;;
72337;SDS011;60294;64.134;-21.862;2022-08-01T02:37:00;1.25;;;0.43;;
72337;SDS011;60294;64.134;-21.862;2022-08-01T02:39:29;1.55;;;0.47;;
72337;SDS011;60294;64.134;-21.862;2022-08-01T02:41:57;2.38;;;0.50;;
72337;SDS011;60294;64.134;-21.862;2022-08-01T02:44:33;0.40;;;0.35;;
72337;SDS011;60294;64.134;-21.862;2022-08-01T02:47:02;0.38;;;0.38;;
72337;SDS011;60294;64.134;-21.862;2022-08-01T02:49:33;0.17;;;0.17;;
72337;SDS011;60294;64.134;-21.862;2022-08-01T02:52:04;0.22;;;0.22;;
72337;SDS011;60294;64.134;-21.862;2022-08-01T02:54:32;2.15;;;0.30;;
72337;SDS011;60294;64.134;-21.862;2022-08-01T02:57:00;0.20;;;0.20;;
72337;SDS011;60294;64.134;-21.862;2022-08-01T02:59:28;0.32;;;0.30;;
72337;SDS011;60294;64.134;-21.862;2022-08-01T03:01:56;0.70;;;0.40;;
72337;SDS011;60294;64.134;-21.862;2022-08-01T03:04:24;1.00;;;0.20;;
72337;SDS011;60294;64.134;-21.862;2022-08-01T03:06:52;0.28;;;0.20;;
72337;SDS011;60294;64.134;-21.862;2022-08-01T03:09:20;1.08;;;0.20;;
72337;SDS011;60294;64.134;-21.862;2022-08-01T03:11:46;0.35;;;0.25;;
72337;SDS011;60294;64.134;-21.862;2022-08-01T03:14:14;0.85;;;0.35;;
72337;SDS011;60294;64.134;-21.862;2022-08-01T03:16:42;2.33;;;0.38;;
72337;SDS011;60294;64.134;-21.862;2022-08-01T03:19:11;2.30;;;0.35;;
72337;SDS011;60294;64.134;-21.862;2022-08-01T03:21:39;0.22;;;0.22;;
72337;SDS011;60294;64.134;-21.862;2022-08-01T03:24:08;0.20;;;0.20;;
72337;SDS011;60294;64.134;-21.862;2022-08-01T03:26:36;0.65;;;0.25;;
72337;SDS011;60294;64.134;-21.862;2022-08-01T03:29:05;0.15;;;0.15;;
72337;SDS011;60294;64.134;-21.862;2022-08-01T03:31:39;1.17;;;0.20;;
72337;SDS011;60294;64.134;-21.862;2022-08-01T03:34:08;0.10;;;0.10;;
72337;SDS011;60294;64.134;-21.862;2022-08-01T03:36:34;1.45;;;0.17;;
72337;SDS011;60294;64.134;-21.862;2022-08-01T03:39:08;1.35;;;0.17;;
72337;SDS011;60294;64.134;-21.862;2022-08-01T03:41:40;0.10;;;0.10;;
72337;SDS011;60294;64.134;-21.862;2022-08-01T03:44:13;1.65;;;0.10;;
72337;SDS011;60294;64.134;-21.862;2022-08-01T03:46:45;0.13;;;0.10;;
72337;SDS011;60294;64.134;-21.862;2022-08-01T03:49:22;0.10;;;0.10;;
72337;SDS011;60294;64.134;-21.862;2022-08-01T03:51:51;0.10;;;0.10;;
72337;SDS011;60294;64.134;-21.862;2022-08-01T03:54:23;1.15;;;0.10;;
72337;SDS011;60294;64.134;-21.862;2022-08-01T03:56:50;0.35;;;0.10;;
72337;SDS011;60294;64.134;-21.862;2022-08-01T03:59:17;0.20;;;0.20;;
72337;SDS011;60294;64.134;-21.862;2022-08-01T04:01:44;0.52;;;0.20;;
72337;SDS011;60294;64.134;-21.862;2022-08-01T04:04:11;0.47;;;0.20;;
72337;SDS011;60294;64.134;-21.862;2022-08-01T04:06:38;0.45;;;0.30;;
72337;SDS011;60294;64.134;-21.862;2022-08-01T04:09:09;0.75;;;0.20;;
72337;SDS011;60294;64.134;-21.862;2022-08-01T04:11:37;0.10;;;0.10;;
72337;SDS011;60294;64.134;-21.862;2022-08-01T04:14:03;0.73;;;0.25;;
72337;SDS011;60294;64.134;-21.862;2022-08-01T04:16:29;1.38;;;0.20;;
72337;SDS011;60294;64.134;-21.862;2022-08-01T04:18:55;1.05;;;0.30;;
72337;SDS011;60294;64.134;-21.862;2022-08-01T04:21:22;0.20;;;0.20;;
72337;SDS011;60294;64.134;-21.862;2022-08-01T04:23:52;0.20;;;0.20;;
72337;SDS011;60294;64.134;-21.862;2022-08-01T04:26:21;0.30;;;0.30;;
72337;SDS011;60294;64.134;-21.862;2022-08-01T04:28:48;1.20;;;0.47;;
72337;SDS011;60294;64.134;-21.862;2022-08-01T04:31:17;1.17;;;0.32;;
72337;SDS011;60294;64.134;-21.862;2022-08-01T04:33:45;1.65;;;0.30;;
72337;SDS011;60294;64.134;-21.862;2022-08-01T04:36:14;1.85;;;0.38;;
72337;SDS011;60294;64.134;-21.862;2022-08-01T04:38:44;0.20;;;0.20;;
72337;SDS011;60294;64.134;-21.862;2022-08-01T04:41:13;0.20;;;0.20;;
72337;SDS011;60294;64.134;-21.862;2022-08-01T04:43:40;0.45;;;0.32;;
72337;SDS011;60294;64.134;-21.862;2022-08-01T04:46:07;0.17;;;0.10;;
72337;SDS011;60294;64.134;-21.862;2022-08-01T04:48:37;0.10;;;0.10;;
72337;SDS011;60294;64.134;-21.862;2022-08-01T04:51:04;0.28;;;0.15;;
72337;SDS011;60294;64.134;-21.862;2022-08-01T04:53:38;0.20;;;0.20;;
72337;SDS011;60294;64.134;-21.862;2022-08-01T04:56:04;0.30;;;0.30;;
72337;SDS011;60294;64.134;-21.862;2022-08-01T04:58:30;0.55;;;0.25;;
72337;SDS011;60294;64.134;-21.862;2022-08-01T05:00:56;0.38;;;0.10;;
72337;SDS011;60294;64.134;-21.862;2022-08-01T05:03:22;0.10;;;0.10;;
72337;SDS011;60294;64.134;-21.862;2022-08-01T05:05:48;1.95;;;0.30;;
72337;SDS011;60294;64.134;-21.862;2022-08-01T05:08:14;0.10;;;0.10;;
72337;SDS011;60294;64.134;-21.862;2022-08-01T05:10:41;0.10;;;0.10;;
72337;SDS011;60294;64.134;-21.862;2022-08-01T05:13:07;0.10;;;0.10;;
72337;SDS011;60294;64.134;-21.862;2022-08-01T05:15:34;0.73;;;0.40;;
72337;SDS011;60294;64.134;-21.862;2022-08-01T05:18:03;1.75;;;0.20;;
72337;SDS011;60294;64.134;-21.862;2022-08-01T05:20:29;0.10;;;0.10;;
72337;SDS011;60294;64.134;-21.862;2022-08-01T05:22:55;1.00;;;0.20;;
72337;SDS011;60294;64.134;-21.862;2022-08-01T05:25:22;0.10;;;0.10;;
72337;SDS011;60294;64.134;-21.862;2022-08-01T05:27:48;1.38;;;0.85;;
72337;SDS011;60294;64.134;-21.862;2022-08-01T05:30:14;0.20;;;0.20;;
72337;SDS011;60294;64.134;-21.862;2022-08-01T05:32:40;0.52;;;0.20;;
72337;SDS011;60294;64.134;-21.862;2022-08-01T05:35:07;0.10;;;0.10;;
72337;SDS011;60294;64.134;-21.862;2022-08-01T05:37:33;0.10;;;0.10;;
72337;SDS011;60294;64.134;-21.862;2022-08-01T05:40:00;0.17;;;0.10;;
72337;SDS011;60294;64.134;-21.862;2022-08-01T05:42:26;0.17;;;0.17;;
72337;SDS011;60294;64.134;-21.862;2022-08-01T05:44:52;1.42;;;0.22;;
72337;SDS011;60294;64.134;-21.862;2022-08-01T05:47:18;0.95;;;0.30;;
72337;SDS011;60294;64.134;-21.862;2022-08-01T05:49:44;0.40;;;0.15;;
72337;SDS011;60294;64.134;-21.862;2022-08-01T05:52:11;0.13;;;0.13;;
72337;SDS011;60294;64.134;-21.862;2022-08-01T05:54:37;0.30;;;0.20;;
72337;SDS011;60294;64.134;-21.862;2022-08-01T05:57:03;0.20;;;0.20;;
72337;SDS011;60294;64.134;-21.862;2022-08-01T05:59:29;0.30;;;0.10;;
72337;SDS011;60294;64.134;-21.862;2022-08-01T06:01:55;0.38;;;0.20;;
72337;SDS011;60294;64.134;-21.862;2022-08-01T06:04:21;1.55;;;0.20;;
72337;SDS011;60294;64.134;-21.862;2022-08-01T06:06:47;2.20;;;0.20;;
72337;SDS011;60294;64.134;-21.862;2022-08-01T06:09:13;0.20;;;0.20;;
72337;SDS011;60294;64.134;-21.862;2022-08-01T06:11:39;0.20;;;0.20;;
72337;SDS011;60294;64.134;-21.862;2022-08-01T06:14:06;0.32;;;0.15;;
72337;SDS011;60294;64.134;-21.862;2022-08-01T06:16:32;0.73;;;0.20;;
72337;SDS011;60294;64.134;-21.862;2022-08-01T06:18:58;0.10;;;0.10;;
72337;SDS011;60294;64.134;-21.862;2022-08-01T06:21:24;0.15;;;0.10;;
72337;SDS011;60294;64.134;-21.862;2022-08-01T06:23:50;0.22;;;0.10;;
72337;SDS011;60294;64.134;-21.862;2022-08-01T06:26:19;0.28;;;0.10;;
72337;SDS011;60294;64.134;-21.862;2022-08-01T06:28:45;0.22;;;0.20;;
72337;SDS011;60294;64.134;-21.862;2022-08-01T06:31:11;0.25;;;0.20;;
72337;SDS011;60294;64.134;-21.862;2022-08-01T06:33:38;0.88;;;0.20;;
72337;SDS011;60294;64.134;-21.862;2022-08-01T06:36:04;1.73;;;0.32;;
72337;SDS011;60294;64.134;-21.862;2022-08-01T06:38:30;0.28;;;0.20;;
72337;SDS011;60294;64.134;-21.862;2022-08-01T06:40:56;0.77;;;0.15;;
72337;SDS011;60294;64.134;-21.862;2022-08-01T06:43:22;1.13;;;0.50;;
72337;SDS011;60294;64.134;-21.862;2022-08-01T06:45:48;0.20;;;0.20;;
72337;SDS011;60294;64.134;-21.862;2022-08-01T06:48:14;0.10;;;0.10;;
72337;SDS011;60294;64.134;-21.862;2022-08-01T06:50:40;0.25;;;0.25;;
72337;SDS011;60294;64.134;-21.862;2022-08-01T06:53:06;0.15;;;0.15;;
72337;SDS011;60294;64.134;-21.862;2022-08-01T06:55:33;1.85;;;0.38;;
72337;SDS011;60294;64.134;-21.862;2022-08-01T06:57:59;0.28;;;0.15;;
72337;SDS011;60294;64.134;-21.862;2022-08-01T07:00:25;1.65;;;0.22;;
72337;SDS011;60294;64.134;-21.862;2022-08-01T07:02:55;1.85;;;0.40;;
72337;SDS011;60294;64.134;-21.862;2022-08-01T07:05:23;2.08;;;0.47;;
72337;SDS011;60294;64.134;-21.862;2022-08-01T07:07:49;0.43;;;0.20;;
72337;SDS011;60294;64.134;-21.862;2022-08-01T07:10:15;0.17;;;0.17;;
72337;SDS011;60294;64.134;-21.862;2022-08-01T07:12:41;2.22;;;0.25;;
72337;SDS011;60294;64.134;-21.862;2022-08-01T07:15:08;0.20;;;0.20;;
72337;SDS011;60294;64.134;-21.862;2022-08-01T07:17:39;0.32;;;0.30;;
72337;SDS011;60294;64.134;-21.862;2022-08-01T07:20:07;0.80;;;0.50;;
72337;SDS011;60294;64.134;-21.862;2022-08-01T07:22:34;1.88;;;0.43;;
72337;SDS011;60294;64.134;-21.862;2022-08-01T07:25:00;4.10;;;0.75;;
72337;SDS011;60294;64.134;-21.862;2022-08-01T07:27:25;4.93;;;0.60;;
72337;SDS011;60294;64.134;-21.862;2022-08-01T07:29:51;1.30;;;0.50;;
72337;SDS011;60294;64.134;-21.862;2022-08-01T07:32:17;0.85;;;0.40;;
72337;SDS011;60294;64.134;-21.862;2022-08-01T07:34:43;1.95;;;0.50;;
72337;SDS011;60294;64.134;-21.862;2022-08-01T07:37:09;0.20;;;0.20;;
72337;SDS011;60294;64.134;-21.862;2022-08-01T07:39:34;4.75;;;0.60;;
72337;SDS011;60294;64.134;-21.862;2022-08-01T07:42:00;0.65;;;0.30;;
72337;SDS011;60294;64.134;-21.862;2022-08-01T07:44:26;4.32;;;0.43;;
72337;SDS011;60294;64.134;-21.862;2022-08-01T07:46:52;1.05;;;0.40;;
72337;SDS011;60294;64.134;-21.862;2022-08-01T07:49:18;1.92;;;0.30;;
72337;SDS011;60294;64.134;-21.862;2022-08-01T07:51:43;0.28;;;0.25;;
72337;SDS011;60294;64.134;-21.862;2022-08-01T07:54:09;2.00;;;0.20;;
72337;SDS011;60294;64.134;-21.862;2022-08-01T07:56:35;2.45;;;0.50;;
72337;SDS011;60294;64.134;-21.862;2022-08-01T07:59:01;0.13;;;0.13;;
72337;SDS011;60294;64.134;-21.862;2022-08-01T08:01:27;0.32;;;0.28;;
72337;SDS011;60294;64.134;-21.862;2022-08-01T08:03:53;0.17;;;0.10;;
72337;SDS011;60294;64.134;-21.862;2022-08-01T08:06:19;0.20;;;0.20;;
72337;SDS011;60294;64.134;-21.862;2022-08-01T08:08:44;2.20;;;0.35;;
72337;SDS011;60294;64.134;-21.862;2022-08-01T08:11:10;1.30;;;0.20;;
72337;SDS011;60294;64.134;-21.862;2022-08-01T08:13:36;1.65;;;0.30;;
72337;SDS011;60294;64.134;-21.862;2022-08-01T08:16:02;0.20;;;0.20;;
72337;SDS011;60294;64.134;-21.862;2022-08-01T08:18:28;1.02;;;0.65;;
72337;SDS011;60294;64.134;-21.862;2022-08-01T08:20:53;0.85;;;0.30;;
72337;SDS011;60294;64.134;-21.862;2022-08-01T08:23:19;0.20;;;0.10;;
72337;SDS011;60294;64.134;-21.862;2022-08-01T08:26:03;0.15;;;0.15;;
72337;SDS011;60294;64.134;-21.862;2022-08-01T08:28:29;1.55;;;0.20;;
72337;SDS011;60294;64.134;-21.862;2022-08-01T08:30:55;0.30;;;0.20;;
72337;SDS011;60294;64.134;-21.862;2022-08-01T08:33:20;1.38;;;0.30;;
72337;SDS011;60294;64.134;-21.862;2022-08-01T08:35:46;2.53;;;0.20;;
72337;SDS011;60294;64.134;-21.862;2022-08-01T08:38:12;0.65;;;0.28;;
72337;SDS011;60294;64.134;-21.862;2022-08-01T08:40:38;0.20;;;0.20;;
72337;SDS011;60294;64.134;-21.862;2022-08-01T08:43:04;1.75;;;0.22;;
72337;SDS011;60294;64.134;-21.862;2022-08-01T08:45:31;0.32;;;0.20;;
72337;SDS011;60294;64.134;-21.862;2022-08-01T08:47:57;0.20;;;0.20;;
72337;SDS011;60294;64.134;-21.862;2022-08-01T08:50:27;0.15;;;0.13;;
72337;SDS011;60294;64.134;-21.862;2022-08-01T08:52:54;0.52;;;0.30;;
72337;SDS011;60294;64.134;-21.862;2022-08-01T08:55:21;0.47;;;0.20;;
72337;SDS011;60294;64.134;-21.862;2022-08-01T08:57:48;0.60;;;0.25;;
72337;SDS011;60294;64.134;-21.862;2022-08-01T09:00:14;0.75;;;0.20;;
72337;SDS011;60294;64.134;-21.862;2022-08-01T09:02:44;1.35;;;0.30;;
72337;SDS011;60294;64.134;-21.862;2022-08-01T09:05:12;0.25;;;0.20;;
72337;SDS011;60294;64.134;-21.862;2022-08-01T09:07:38;0.25;;;0.13;;
72337;SDS011;60294;64.134;-21.862;2022-08-01T09:10:05;0.17;;;0.17;;
72337;SDS011;60294;64.134;-21.862;2022-08-01T09:12:32;1.48;;;0.22;;
72337;SDS011;60294;64.134;-21.862;2022-08-01T09:14:58;0.55;;;0.30;;
72337;SDS011;60294;64.134;-21.862;2022-08-01T09:17:23;0.25;;;0.10;;
72337;SDS011;60294;64.134;-21.862;2022-08-01T09:19:50;1.45;;;0.30;;
72337;SDS011;60294;64.134;-21.862;2022-08-01T09:22:20;2.03;;;0.20;;
72337;SDS011;60294;64.134;-21.862;2022-08-01T09:24:58;0.57;;;0.45;;
72337;SDS011;60294;64.134;-21.862;2022-08-01T09:27:27;0.10;;;0.10;;
72337;SDS011;60294;64.134;-21.862;2022-08-01T09:29:54;0.20;;;0.10;;
72337;SDS011;60294;64.134;-21.862;2022-08-01T09:32:31;0.20;;;0.20;;
72337;SDS011;60294;64.134;-21.862;2022-08-01T09:34:57;0.20;;;0.20;;
72337;SDS011;60294;64.134;-21.862;2022-08-01T09:38:11;1.67;;;0.25;;
72337;SDS011;60294;64.134;-21.862;2022-08-01T09:40:49;2.03;;;0.30;;
72337;SDS011;60294;64.134;-21.862;2022-08-01T09:43:15;2.38;;;0.20;;
72337;SDS011;60294;64.134;-21.862;2022-08-01T09:45:41;0.15;;;0.15;;
72337;SDS011;60294;64.134;-21.862;2022-08-01T09:48:08;0.90;;;0.30;;
72337;SDS011;60294;64.134;-21.862;2022-08-01T09:50:41;0.57;;;0.20;;
72337;SDS011;60294;64.134;-21.862;2022-08-01T09:53:08;3.70;;;0.28;;
72337;SDS011;60294;64.134;-21.862;2022-08-01T09:55:37;0.52;;;0.20;;
72337;SDS011;60294;64.134;-21.862;2022-08-01T09:58:03;2.05;;;0.47;;
72337;SDS011;60294;64.134;-21.862;2022-08-01T10:00:30;0.10;;;0.10;;
72337;SDS011;60294;64.134;-21.862;2022-08-01T10:02:57;2.40;;;0.32;;
72337;SDS011;60294;64.134;-21.862;2022-08-01T10:05:33;0.45;;;0.28;;
72337;SDS011;60294;64.134;-21.862;2022-08-01T10:08:04;0.30;;;0.30;;
72337;SDS011;60294;64.134;-21.862;2022-08-01T10:10:30;0.60;;;0.30;;
72337;SDS011;60294;64.134;-21.862;2022-08-01T10:12:57;0.32;;;0.20;;
72337;SDS011;60294;64.134;-21.862;2022-08-01T10:15:24;0.80;;;0.20;;
72337;SDS011;60294;64.134;-21.862;2022-08-01T10:17:57;0.20;;;0.20;;
72337;SDS011;60294;64.134;-21.862;2022-08-01T10:20:29;0.20;;;0.20;;
72337;SDS011;60294;64.134;-21.862;2022-08-01T10:23:00;1.65;;;0.20;;
72337;SDS011;60294;64.134;-21.862;2022-08-01T10:25:28;1.38;;;0.30;;
72337;SDS011;60294;64.134;-21.862;2022-08-01T10:27:58;4.32;;;0.70;;
72337;SDS011;60294;64.134;-21.862;2022-08-01T10:30:26;0.20;;;0.20;;
72337;SDS011;60294;64.134;-21.862;2022-08-01T10:32:53;1.40;;;0.28;;
72337;SDS011;60294;64.134;-21.862;2022-08-01T10:35:21;0.47;;;0.25;;
72337;SDS011;60294;64.134;-21.862;2022-08-01T10:37:47;1.48;;;0.30;;
72337;SDS011;60294;64.134;-21.862;2022-08-01T10:40:15;0.47;;;0.30;;
72337;SDS011;60294;64.134;-21.862;2022-08-01T10:42:42;0.20;;;0.20;;
72337;SDS011;60294;64.134;-21.862;2022-08-01T10:45:13;0.25;;;0.25;;
72337;SDS011;60294;64.134;-21.862;2022-08-01T10:47:48;1.30;;;0.30;;
72337;SDS011;60294;64.134;-21.862;2022-08-01T10:53:27;2.08;;;0.30;;
72337;SDS011;60294;64.134;-21.862;2022-08-01T10:58:24;3.42;;;0.20;;
72337;SDS011;60294;64.134;-21.862;2022-08-01T11:06:33;1.10;;;0.25;;
72337;SDS011;60294;64.134;-21.862;2022-08-01T11:09:06;0.20;;;0.20;;
72337;SDS011;60294;64.134;-21.862;2022-08-01T11:12:05;1.60;;;0.28;;
72337;SDS011;60294;64.134;-21.862;2022-08-01T11:17:31;1.55;;;0.98;;
72337;SDS011;60294;64.134;-21.862;2022-08-01T11:20:11;0.63;;;0.20;;
72337;SDS011;60294;64.134;-21.862;2022-08-01T11:23:14;0.30;;;0.20;;
72337;SDS011;60294;64.134;-21.862;2022-08-01T11:30:43;0.20;;;0.20;;
72337;SDS011;60294;64.134;-21.862;2022-08-01T11:33:15;2.05;;;0.38;;
72337;SDS011;60294;64.134;-21.862;2022-08-01T11:38:36;0.50;;;0.30;;
72337;SDS011;60294;64.134;-21.862;2022-08-01T11:43:54;0.20;;;0.20;;
72337;SDS011;60294;64.134;-21.862;2022-08-01T11:52:06;0.32;;;0.30;;
72337;SDS011;60294;64.134;-21.862;2022-08-01T11:54:45;0.22;;;0.22;;
72337;SDS011;60294;64.134;-21.862;2022-08-01T11:57:23;1.67;;;0.45;;
72337;SDS011;60294;64.134;-21.862;2022-08-01T11:59:53;1.65;;;0.17;;
72337;SDS011;60294;64.134;-21.862;2022-08-01T12:02:28;1.35;;;0.20;;
72337;SDS011;60294;64.134;-21.862;2022-08-01T12:05:04;1.83;;;0.40;;
72337;SDS011;60294;64.134;-21.862;2022-08-01T12:07:32;0.35;;;0.32;;
72337;SDS011;60294;64.134;-21.862;2022-08-01T12:10:00;2.58;;;0.45;;
72337;SDS011;60294;64.134;-21.862;2022-08-01T12:12:49;2.20;;;0.30;;
72337;SDS011;60294;64.134;-21.862;2022-08-01T12:15:20;2.40;;;0.40;;
72337;SDS011;60294;64.134;-21.862;2022-08-01T12:17:48;0.82;;;0.20;;
72337;SDS011;60294;64.134;-21.862;2022-08-01T12:20:19;0.80;;;0.40;;
72337;SDS011;60294;64.134;-21.862;2022-08-01T12:22:46;2.00;;;0.32;;
72337;SDS011;60294;64.134;-21.862;2022-08-01T12:25:15;3.05;;;0.50;;
72337;SDS011;60294;64.134;-21.862;2022-08-01T12:27:43;0.68;;;0.20;;
72337;SDS011;60294;64.134;-21.862;2022-08-01T12:30:12;1.75;;;0.47;;
72337;SDS011;60294;64.134;-21.862;2022-08-01T12:32:40;0.75;;;0.30;;
72337;SDS011;60294;64.134;-21.862;2022-08-01T12:37:35;3.80;;;0.50;;
72337;SDS011;60294;64.134;-21.862;2022-08-01T12:40:17;1.02;;;0.70;;
72337;SDS011;60294;64.134;-21.862;2022-08-01T12:42:46;1.80;;;0.60;;
72337;SDS011;60294;64.134;-21.862;2022-08-01T12:45:14;2.08;;;0.50;;
72337;SDS011;60294;64.134;-21.862;2022-08-01T12:47:43;0.80;;;0.30;;
72337;SDS011;60294;64.134;-21.862;2022-08-01T12:50:14;0.88;;;0.30;;
72337;SDS011;60294;64.134;-21.862;2022-08-01T12:52:44;1.60;;;0.20;;
72337;SDS011;60294;64.134;-21.862;2022-08-01T12:55:14;1.88;;;0.30;;
72337;SDS011;60294;64.134;-21.862;2022-08-01T12:57:43;1.35;;;0.25;;
72337;SDS011;60294;64.134;-21.862;2022-08-01T13:00:19;1.48;;;0.40;;
72337;SDS011;60294;64.134;-21.862;2022-08-01T13:02:46;0.60;;;0.20;;
72337;SDS011;60294;64.134;-21.862;2022-08-01T13:05:14;5.60;;;0.57;;
72337;SDS011;60294;64.134;-21.862;2022-08-01T13:07:47;0.43;;;0.30;;
72337;SDS011;60294;64.134;-21.862;2022-08-01T13:10:26;3.83;;;0.50;;
72337;SDS011;60294;64.134;-21.862;2022-08-01T13:12:54;1.92;;;0.45;;
72337;SDS011;60294;64.134;-21.862;2022-08-01T13:15:23;2.72;;;0.63;;
72337;SDS011;60294;64.134;-21.862;2022-08-01T13:17:52;1.38;;;0.30;;
72337;SDS011;60294;64.134;-21.862;2022-08-01T13:20:23;2.25;;;0.50;;
72337;SDS011;60294;64.134;-21.862;2022-08-01T13:23:09;1.73;;;0.40;;
72337;SDS011;60294;64.134;-21.862;2022-08-01T13:25:46;1.90;;;0.35;;
72337;SDS011;60294;64.134;-21.862;2022-08-01T13:28:24;4.07;;;0.30;;
72337;SDS011;60294;64.134;-21.862;2022-08-01T13:33:20;6.43;;;0.60;;
72337;SDS011;60294;64.134;-21.862;2022-08-01T13:35:48;0.52;;;0.40;;
72337;SDS011;60294;64.134;-21.862;2022-08-01T13:38:19;0.73;;;0.40;;
72337;SDS011;60294;64.134;-21.862;2022-08-01T13:40:45;1.50;;;0.38;;
72337;SDS011;60294;64.134;-21.862;2022-08-01T13:43:11;0.40;;;0.30;;
72337;SDS011;60294;64.134;-21.862;2022-08-01T13:45:37;8.23;;;0.68;;
72337;SDS011;60294;64.134;-21.862;2022-08-01T13:48:03;2.05;;;0.88;;
72337;SDS011;60294;64.134;-21.862;2022-08-01T13:50:29;3.72;;;0.68;;
72337;SDS011;60294;64.134;-21.862;2022-08-01T13:52:55;2.00;;;0.50;;
72337;SDS011;60294;64.134;-21.862;2022-08-01T13:55:21;3.55;;;0.88;;
72337;SDS011;60294;64.134;-21.862;2022-08-01T13:57:47;5.07;;;0.70;;
72337;SDS011;60294;64.134;-21.862;2022-08-01T14:00:13;2.05;;;0.50;;
72337;SDS011;60294;64.134;-21.862;2022-08-01T14:02:39;2.35;;;0.60;;
72337;SDS011;60294;64.134;-21.862;2022-08-01T14:05:05;2.72;;;0.60;;
72337;SDS011;60294;64.134;-21.862;2022-08-01T14:07:31;3.50;;;0.60;;
72337;SDS011;60294;64.134;-21.862;2022-08-01T14:09:57;2.20;;;0.50;;
72337;SDS011;60294;64.134;-21.862;2022-08-01T14:12:23;0.85;;;0.30;;
72337;SDS011;60294;64.134;-21.862;2022-08-01T14:14:49;4.00;;;0.32;;
72337;SDS011;60294;64.134;-21.862;2022-08-01T14:17:14;3.13;;;0.60;;
72337;SDS011;60294;64.134;-21.862;2022-08-01T14:19:40;3.38;;;0.85;;
72337;SDS011;60294;64.134;-21.862;2022-08-01T14:22:06;5.57;;;0.50;;
72337;SDS011;60294;64.134;-21.862;2022-08-01T14:24:32;1.55;;;0.40;;
72337;SDS011;60294;64.134;-21.862;2022-08-01T14:26:57;2.00;;;0.50;;
72337;SDS011;60294;64.134;-21.862;2022-08-01T14:29:23;3.17;;;0.45;;
72337;SDS011;60294;64.134;-21.862;2022-08-01T14:31:49;3.65;;;0.75;;
72337;SDS011;60294;64.134;-21.862;2022-08-01T14:34:15;1.30;;;0.57;;
72337;SDS011;60294;64.134;-21.862;2022-08-01T14:36:42;3.20;;;0.70;;
72337;SDS011;60294;64.134;-21.862;2022-08-01T14:39:08;0.98;;;0.30;;
72337;SDS011;60294;64.134;-21.862;2022-08-01T14:41:34;1.45;;;0.28;;
72337;SDS011;60294;64.134;-21.862;2022-08-01T14:44:00;0.85;;;0.30;;
72337;SDS011;60294;64.134;-21.862;2022-08-01T14:46:26;3.00;;;0.40;;
72337;SDS011;60294;64.134;-21.862;2022-08-01T14:48:51;1.75;;;0.40;;
72337;SDS011;60294;64.134;-21.862;2022-08-01T14:51:17;3.47;;;0.65;;
72337;SDS011;60294;64.134;-21.862;2022-08-01T14:53:43;1.50;;;0.40;;
72337;SDS011;60294;64.134;-21.862;2022-08-01T14:56:09;2.40;;;0.88;;
72337;SDS011;60294;64.134;-21.862;2022-08-01T14:58:35;1.30;;;0.35;;
72337;SDS011;60294;64.134;-21.862;2022-08-01T15:01:02;2.10;;;0.50;;
72337;SDS011;60294;64.134;-21.862;2022-08-01T15:03:29;2.35;;;0.30;;
72337;SDS011;60294;64.134;-21.862;2022-08-01T15:05:56;2.30;;;0.52;;
72337;SDS011;60294;64.134;-21.862;2022-08-01T15:08:23;2.03;;;0.50;;
72337;SDS011;60294;64.134;-21.862;2022-08-01T15:10:48;1.27;;;0.30;;
72337;SDS011;60294;64.134;-21.862;2022-08-01T15:13:14;3.35;;;0.60;;
72337;SDS011;60294;64.134;-21.862;2022-08-01T15:15:40;0.82;;;0.45;;
72337;SDS011;60294;64.134;-21.862;2022-08-01T15:18:06;2.63;;;0.50;;